sensor_id;sensor_type;location;lat;lon;timestamp;pressure;altitude;pressure_sealevel;temperature;humidity
85023;BME280;75348;43.126;-2.538;2024-02-23T00:00:53;98798.09;;;4.81;97.47
85023;BME280;75348;43.126;-2.538;2024-02-23T00:03:20;98795.78;;;4.59;97.85
85023;BME280;75348;43.126;-2.538;2024-02-23T00:05:47;98799.38;;;4.67;97.99
85023;BME280;75348;43.126;-2.538;2024-02-23T00:08:14;98790.56;;;4.59;98.27
85023;BME280;75348;43.126;-2.538;2024-02-23T00:10:41;98792.34;;;4.58;99.25
85023;BME280;75348;43.126;-2.538;2024-02-23T00:13:08;98781.72;;;4.60;97.80
85023;BME280;75348;43.126;-2.538;2024-02-23T00:15:35;98792.50;;;4.57;97.49
85023;BME280;75348;43.126;-2.538;2024-02-23T00:18:02;98795.84;;;4.40;98.31
85023;BME280;75348;43.126;-2.538;2024-02-23T00:20:30;98790.19;;;4.35;98.57
85023;BME280;75348;43.126;-2.538;2024-02-23T00:22:57;98788.44;;;4.26;98.83
85023;BME280;75348;43.126;-2.538;2024-02-23T00:25:24;98790.91;;;4.37;98.70
85023;BME280;75348;43.126;-2.538;2024-02-23T00:27:51;98798.63;;;4.48;97.67
85023;BME280;75348;43.126;-2.538;2024-02-23T00:30:18;98799.28;;;4.50;97.68
85023;BME280;75348;43.126;-2.538;2024-02-23T00:32:46;98799.09;;;4.70;97.78
85023;BME280;75348;43.126;-2.538;2024-02-23T00:35:13;98796.94;;;4.47;96.55
85023;BME280;75348;43.126;-2.538;2024-02-23T00:37:40;98795.91;;;4.21;97.90
85023;BME280;75348;43.126;-2.538;2024-02-23T00:40:07;98789.00;;;4.11;98.80
85023;BME280;75348;43.126;-2.538;2024-02-23T00:42:35;98782.94;;;4.10;98.50
85023;BME280;75348;43.126;-2.538;2024-02-23T00:45:03;98777.78;;;4.37;98.88
85023;BME280;75348;43.126;-2.538;2024-02-23T00:47:30;98769.97;;;4.18;98.37
85023;BME280;75348;43.126;-2.538;2024-02-23T00:49:57;98742.84;;;4.37;99.28
85023;BME280;75348;43.126;-2.538;2024-02-23T00:52:24;98757.19;;;4.51;98.21
85023;BME280;75348;43.126;-2.538;2024-02-23T00:54:52;98749.78;;;4.28;97.88
85023;BME280;75348;43.126;-2.538;2024-02-23T00:57:19;98760.13;;;4.39;98.31
85023;BME280;75348;43.126;-2.538;2024-02-23T00:59:52;98736.41;;;4.67;97.13
85023;BME280;75348;43.126;-2.538;2024-02-23T01:02:19;98757.34;;;4.41;97.73
85023;BME280;75348;43.126;-2.538;2024-02-23T01:04:46;98747.06;;;4.66;98.41
85023;BME280;75348;43.126;-2.538;2024-02-23T01:07:14;98756.50;;;4.40;97.94
85023;BME280;75348;43.126;-2.538;2024-02-23T01:09:40;98748.13;;;4.27;97.65
85023;BME280;75348;43.126;-2.538;2024-02-23T01:12:08;98728.81;;;4.28;97.58
85023;BME280;75348;43.126;-2.538;2024-02-23T01:14:35;98749.09;;;4.26;96.98
85023;BME280;75348;43.126;-2.538;2024-02-23T01:17:02;98739.09;;;4.48;97.14
85023;BME280;75348;43.126;-2.538;2024-02-23T01:19:29;98704.41;;;4.64;96.41
85023;BME280;75348;43.126;-2.538;2024-02-23T01:21:56;98739.84;;;4.22;95.82
85023;BME280;75348;43.126;-2.538;2024-02-23T01:24:27;98722.00;;;3.80;97.33
85023;BME280;75348;43.126;-2.538;2024-02-23T01:26:56;98748.53;;;4.32;97.92
85023;BME280;75348;43.126;-2.538;2024-02-23T01:29:25;98745.84;;;4.05;97.02
85023;BME280;75348;43.126;-2.538;2024-02-23T01:31:53;98741.03;;;3.73;98.25
85023;BME280;75348;43.126;-2.538;2024-02-23T01:34:21;98736.19;;;3.78;99.06
85023;BME280;75348;43.126;-2.538;2024-02-23T01:36:48;98734.22;;;4.08;97.99
85023;BME280;75348;43.126;-2.538;2024-02-23T01:39:15;98724.28;;;4.02;97.61
85023;BME280;75348;43.126;-2.538;2024-02-23T01:41:42;98729.84;;;3.90;97.12
85023;BME280;75348;43.126;-2.538;2024-02-23T01:44:11;98741.84;;;3.83;98.47
85023;BME280;75348;43.126;-2.538;2024-02-23T01:46:38;98740.16;;;4.00;98.62
85023;BME280;75348;43.126;-2.538;2024-02-23T01:49:06;98736.00;;;4.26;97.75
85023;BME280;75348;43.126;-2.538;2024-02-23T01:51:35;98727.59;;;4.59;98.20
85023;BME280;75348;43.126;-2.538;2024-02-23T01:54:02;98729.97;;;3.97;97.53
85023;BME280;75348;43.126;-2.538;2024-02-23T01:56:32;98715.91;;;3.80;98.07
85023;BME280;75348;43.126;-2.538;2024-02-23T01:59:00;98713.56;;;3.96;98.35
85023;BME280;75348;43.126;-2.538;2024-02-23T02:01:31;98723.63;;;3.91;97.64
85023;BME280;75348;43.126;-2.538;2024-02-23T02:03:58;98726.66;;;3.77;97.63
85023;BME280;75348;43.126;-2.538;2024-02-23T02:06:25;98721.44;;;3.67;98.27
85023;BME280;75348;43.126;-2.538;2024-02-23T02:08:53;98720.19;;;3.99;98.05
85023;BME280;75348;43.126;-2.538;2024-02-23T02:11:20;98718.38;;;3.91;97.76
85023;BME280;75348;43.126;-2.538;2024-02-23T02:13:48;98705.41;;;3.98;98.48
85023;BME280;75348;43.126;-2.538;2024-02-23T02:16:15;98724.31;;;3.93;97.41
85023;BME280;75348;43.126;-2.538;2024-02-23T02:18:42;98712.19;;;4.01;97.47
85023;BME280;75348;43.126;-2.538;2024-02-23T02:21:11;98698.03;;;4.30;98.63
85023;BME280;75348;43.126;-2.538;2024-02-23T02:23:38;98679.56;;;4.58;97.22
85023;BME280;75348;43.126;-2.538;2024-02-23T02:26:05;98680.44;;;4.40;95.62
85023;BME280;75348;43.126;-2.538;2024-02-23T02:28:32;98662.88;;;4.23;95.87
85023;BME280;75348;43.126;-2.538;2024-02-23T02:30:59;98624.00;;;4.09;95.32
85023;BME280;75348;43.126;-2.538;2024-02-23T02:33:26;98625.38;;;4.13;96.31
85023;BME280;75348;43.126;-2.538;2024-02-23T02:35:53;98616.31;;;3.98;96.58
85023;BME280;75348;43.126;-2.538;2024-02-23T02:38:20;98646.31;;;4.23;95.93
85023;BME280;75348;43.126;-2.538;2024-02-23T02:40:47;98609.94;;;4.10;97.85
85023;BME280;75348;43.126;-2.538;2024-02-23T02:43:14;98620.47;;;3.92;96.86
85023;BME280;75348;43.126;-2.538;2024-02-23T02:45:42;98603.63;;;3.94;98.82
85023;BME280;75348;43.126;-2.538;2024-02-23T02:48:09;98631.81;;;4.28;98.31
85023;BME280;75348;43.126;-2.538;2024-02-23T02:50:36;98606.66;;;3.99;97.85
85023;BME280;75348;43.126;-2.538;2024-02-23T02:53:03;98619.81;;;3.90;97.27
85023;BME280;75348;43.126;-2.538;2024-02-23T02:55:30;98607.72;;;4.15;96.14
85023;BME280;75348;43.126;-2.538;2024-02-23T02:57:57;98620.13;;;4.40;95.84
85023;BME280;75348;43.126;-2.538;2024-02-23T03:00:24;98609.41;;;4.60;97.13
85023;BME280;75348;43.126;-2.538;2024-02-23T03:02:51;98598.56;;;4.46;96.22
85023;BME280;75348;43.126;-2.538;2024-02-23T03:05:18;98599.56;;;4.89;96.67
85023;BME280;75348;43.126;-2.538;2024-02-23T03:07:45;98592.00;;;4.86;96.13
85023;BME280;75348;43.126;-2.538;2024-02-23T03:10:12;98559.72;;;4.59;94.78
85023;BME280;75348;43.126;-2.538;2024-02-23T03:12:39;98606.06;;;4.68;95.38
85023;BME280;75348;43.126;-2.538;2024-02-23T03:15:07;98606.47;;;4.90;96.92
85023;BME280;75348;43.126;-2.538;2024-02-23T03:17:34;98589.13;;;4.62;96.88
85023;BME280;75348;43.126;-2.538;2024-02-23T03:20:01;98624.97;;;4.88;97.07
85023;BME280;75348;43.126;-2.538;2024-02-23T03:22:32;98647.50;;;5.08;97.19
85023;BME280;75348;43.126;-2.538;2024-02-23T03:24:59;98648.19;;;5.28;96.17
85023;BME280;75348;43.126;-2.538;2024-02-23T03:27:28;98648.56;;;5.15;95.71
85023;BME280;75348;43.126;-2.538;2024-02-23T03:29:58;98640.16;;;5.12;96.58
85023;BME280;75348;43.126;-2.538;2024-02-23T03:32:25;98659.56;;;5.01;97.07
85023;BME280;75348;43.126;-2.538;2024-02-23T03:34:53;98657.47;;;4.87;97.51
85023;BME280;75348;43.126;-2.538;2024-02-23T03:37:20;98657.59;;;4.86;98.15
85023;BME280;75348;43.126;-2.538;2024-02-23T03:39:47;98652.22;;;4.87;98.04
85023;BME280;75348;43.126;-2.538;2024-02-23T03:42:15;98633.72;;;4.62;97.32
85023;BME280;75348;43.126;-2.538;2024-02-23T03:44:42;98591.66;;;4.54;95.97
85023;BME280;75348;43.126;-2.538;2024-02-23T03:47:09;98622.41;;;4.79;95.61
85023;BME280;75348;43.126;-2.538;2024-02-23T03:49:36;98608.94;;;4.91;95.43
85023;BME280;75348;43.126;-2.538;2024-02-23T03:52:04;98580.72;;;4.93;93.89
85023;BME280;75348;43.126;-2.538;2024-02-23T03:54:31;98567.53;;;4.85;95.30
85023;BME280;75348;43.126;-2.538;2024-02-23T03:56:58;98562.84;;;4.89;93.77
85023;BME280;75348;43.126;-2.538;2024-02-23T03:59:25;98567.47;;;4.95;93.24
85023;BME280;75348;43.126;-2.538;2024-02-23T04:01:52;98574.44;;;5.04;93.27
85023;BME280;75348;43.126;-2.538;2024-02-23T04:04:19;98582.41;;;5.12;95.78
85023;BME280;75348;43.126;-2.538;2024-02-23T04:06:46;98565.25;;;5.25;96.37
85023;BME280;75348;43.126;-2.538;2024-02-23T04:09:13;98544.47;;;5.06;96.30
85023;BME280;75348;43.126;-2.538;2024-02-23T04:11:40;98565.25;;;5.25;96.55
85023;BME280;75348;43.126;-2.538;2024-02-23T04:14:07;98579.16;;;5.18;95.86
85023;BME280;75348;43.126;-2.538;2024-02-23T04:16:35;98581.47;;;5.38;94.31
85023;BME280;75348;43.126;-2.538;2024-02-23T04:19:02;98582.44;;;5.37;94.50
85023;BME280;75348;43.126;-2.538;2024-02-23T04:21:29;98579.94;;;5.53;94.85
85023;BME280;75348;43.126;-2.538;2024-02-23T04:23:56;98547.28;;;5.30;94.03
85023;BME280;75348;43.126;-2.538;2024-02-23T04:26:23;98547.66;;;5.18;95.15
85023;BME280;75348;43.126;-2.538;2024-02-23T04:28:50;98564.16;;;5.28;96.35
85023;BME280;75348;43.126;-2.538;2024-02-23T04:31:17;98608.94;;;5.43;96.70
85023;BME280;75348;43.126;-2.538;2024-02-23T04:33:44;98609.09;;;5.42;95.72
85023;BME280;75348;43.126;-2.538;2024-02-23T04:36:11;98577.13;;;5.29;94.43
85023;BME280;75348;43.126;-2.538;2024-02-23T04:38:38;98609.28;;;5.48;95.14
85023;BME280;75348;43.126;-2.538;2024-02-23T04:41:05;98605.19;;;5.46;94.78
85023;BME280;75348;43.126;-2.538;2024-02-23T04:43:33;98614.47;;;5.58;96.28
85023;BME280;75348;43.126;-2.538;2024-02-23T04:46:00;98619.66;;;5.50;96.99
85023;BME280;75348;43.126;-2.538;2024-02-23T04:48:26;98615.00;;;5.44;97.16
85023;BME280;75348;43.126;-2.538;2024-02-23T04:50:54;98585.25;;;5.18;95.86
85023;BME280;75348;43.126;-2.538;2024-02-23T04:53:20;98596.41;;;5.20;97.14
85023;BME280;75348;43.126;-2.538;2024-02-23T04:55:47;98601.28;;;5.15;97.48
85023;BME280;75348;43.126;-2.538;2024-02-23T04:58:15;98594.09;;;5.17;94.87
85023;BME280;75348;43.126;-2.538;2024-02-23T05:00:42;98595.53;;;5.12;96.38
85023;BME280;75348;43.126;-2.538;2024-02-23T05:03:09;98584.66;;;4.89;96.29
85023;BME280;75348;43.126;-2.538;2024-02-23T05:05:38;98592.78;;;4.69;95.41
85023;BME280;75348;43.126;-2.538;2024-02-23T05:08:06;98570.78;;;4.97;96.42
85023;BME280;75348;43.126;-2.538;2024-02-23T05:10:34;98546.41;;;4.43;97.13
85023;BME280;75348;43.126;-2.538;2024-02-23T05:13:01;98552.16;;;4.73;93.97
85023;BME280;75348;43.126;-2.538;2024-02-23T05:15:28;98576.56;;;5.00;94.72
85023;BME280;75348;43.126;-2.538;2024-02-23T05:17:55;98571.97;;;5.02;94.71
85023;BME280;75348;43.126;-2.538;2024-02-23T05:20:22;98557.69;;;4.53;96.43
85023;BME280;75348;43.126;-2.538;2024-02-23T05:22:49;98584.47;;;4.74;97.58
85023;BME280;75348;43.126;-2.538;2024-02-23T05:25:16;98594.75;;;4.85;97.58
85023;BME280;75348;43.126;-2.538;2024-02-23T05:27:43;98564.09;;;4.85;97.36
85023;BME280;75348;43.126;-2.538;2024-02-23T05:30:11;98592.59;;;4.97;96.59
85023;BME280;75348;43.126;-2.538;2024-02-23T05:32:38;98594.72;;;5.11;96.91
85023;BME280;75348;43.126;-2.538;2024-02-23T05:35:06;98595.00;;;5.08;97.35
85023;BME280;75348;43.126;-2.538;2024-02-23T05:37:33;98585.69;;;4.96;97.23
85023;BME280;75348;43.126;-2.538;2024-02-23T05:40:00;98596.03;;;5.15;97.56
85023;BME280;75348;43.126;-2.538;2024-02-23T05:42:30;98595.81;;;5.26;96.73
85023;BME280;75348;43.126;-2.538;2024-02-23T05:44:57;98619.44;;;5.26;96.33
85023;BME280;75348;43.126;-2.538;2024-02-23T05:47:24;98602.88;;;5.26;94.05
85023;BME280;75348;43.126;-2.538;2024-02-23T05:49:51;98593.50;;;5.06;91.27
85023;BME280;75348;43.126;-2.538;2024-02-23T05:52:18;98631.06;;;5.41;93.88
85023;BME280;75348;43.126;-2.538;2024-02-23T05:54:45;98619.34;;;5.53;90.30
85023;BME280;75348;43.126;-2.538;2024-02-23T05:57:15;98598.06;;;5.38;89.76
85023;BME280;75348;43.126;-2.538;2024-02-23T05:59:42;98622.41;;;5.66;86.95
85023;BME280;75348;43.126;-2.538;2024-02-23T06:02:09;98624.38;;;5.64;88.17
85023;BME280;75348;43.126;-2.538;2024-02-23T06:04:35;98619.88;;;5.74;88.37
85023;BME280;75348;43.126;-2.538;2024-02-23T06:07:03;98606.63;;;5.66;92.13
85023;BME280;75348;43.126;-2.538;2024-02-23T06:09:30;98644.44;;;5.30;92.34
85023;BME280;75348;43.126;-2.538;2024-02-23T06:11:57;98646.59;;;5.17;92.42
85023;BME280;75348;43.126;-2.538;2024-02-23T06:14:24;98649.38;;;5.33;94.02
85023;BME280;75348;43.126;-2.538;2024-02-23T06:16:51;98642.47;;;4.97;90.98
85023;BME280;75348;43.126;-2.538;2024-02-23T06:19:18;98649.38;;;5.33;97.15
85023;BME280;75348;43.126;-2.538;2024-02-23T06:21:48;98652.25;;;5.05;94.33
85023;BME280;75348;43.126;-2.538;2024-02-23T06:24:18;98631.81;;;4.99;95.54
85023;BME280;75348;43.126;-2.538;2024-02-23T06:26:46;98638.19;;;5.31;92.83
85023;BME280;75348;43.126;-2.538;2024-02-23T06:29:15;98644.66;;;5.54;90.54
85023;BME280;75348;43.126;-2.538;2024-02-23T06:31:42;98630.13;;;5.67;88.77
85023;BME280;75348;43.126;-2.538;2024-02-23T06:34:15;98612.59;;;5.50;89.12
85023;BME280;75348;43.126;-2.538;2024-02-23T06:36:42;98611.38;;;5.62;91.49
85023;BME280;75348;43.126;-2.538;2024-02-23T06:39:10;98615.44;;;5.57;94.09
85023;BME280;75348;43.126;-2.538;2024-02-23T06:41:38;98616.06;;;5.51;92.98
85023;BME280;75348;43.126;-2.538;2024-02-23T06:44:08;98614.09;;;5.53;92.11
85023;BME280;75348;43.126;-2.538;2024-02-23T06:46:35;98584.94;;;5.21;89.53
85023;BME280;75348;43.126;-2.538;2024-02-23T06:49:02;98602.22;;;5.49;88.87
85023;BME280;75348;43.126;-2.538;2024-02-23T06:51:29;98605.50;;;5.43;91.68
85023;BME280;75348;43.126;-2.538;2024-02-23T06:53:56;98607.75;;;5.38;89.32
85023;BME280;75348;43.126;-2.538;2024-02-23T06:56:23;98603.59;;;5.53;88.86
85023;BME280;75348;43.126;-2.538;2024-02-23T06:58:50;98599.34;;;6.02;79.57
85023;BME280;75348;43.126;-2.538;2024-02-23T07:01:20;98609.25;;;6.08;86.98
85023;BME280;75348;43.126;-2.538;2024-02-23T07:03:47;98611.06;;;6.08;88.64
85023;BME280;75348;43.126;-2.538;2024-02-23T07:06:17;98604.22;;;5.89;90.29
85023;BME280;75348;43.126;-2.538;2024-02-23T07:08:45;98597.69;;;5.93;89.21
85023;BME280;75348;43.126;-2.538;2024-02-23T07:11:12;98588.59;;;6.21;83.19
85023;BME280;75348;43.126;-2.538;2024-02-23T07:13:43;98588.84;;;6.02;88.49
85023;BME280;75348;43.126;-2.538;2024-02-23T07:16:10;98614.94;;;5.96;89.74
85023;BME280;75348;43.126;-2.538;2024-02-23T07:18:37;98611.88;;;6.08;88.01
85023;BME280;75348;43.126;-2.538;2024-02-23T07:21:04;98611.38;;;6.38;78.93
85023;BME280;75348;43.126;-2.538;2024-02-23T07:23:31;98614.53;;;6.41;82.74
85023;BME280;75348;43.126;-2.538;2024-02-23T07:25:58;98617.69;;;6.53;79.45
85023;BME280;75348;43.126;-2.538;2024-02-23T07:28:25;98629.59;;;6.64;82.01
85023;BME280;75348;43.126;-2.538;2024-02-23T07:30:52;98644.75;;;6.70;83.37
85023;BME280;75348;43.126;-2.538;2024-02-23T07:33:20;98643.09;;;6.69;84.39
85023;BME280;75348;43.126;-2.538;2024-02-23T07:35:47;98654.25;;;6.63;88.84
85023;BME280;75348;43.126;-2.538;2024-02-23T07:38:14;98657.66;;;6.56;87.48
85023;BME280;75348;43.126;-2.538;2024-02-23T07:40:41;98666.44;;;6.64;86.31
85023;BME280;75348;43.126;-2.538;2024-02-23T07:43:08;98666.09;;;6.60;89.58
85023;BME280;75348;43.126;-2.538;2024-02-23T07:45:37;98668.84;;;6.50;92.02
85023;BME280;75348;43.126;-2.538;2024-02-23T07:48:05;98672.97;;;6.53;88.76
85023;BME280;75348;43.126;-2.538;2024-02-23T07:50:32;98686.28;;;6.26;92.21
85023;BME280;75348;43.126;-2.538;2024-02-23T07:52:59;98685.25;;;6.44;89.22
85023;BME280;75348;43.126;-2.538;2024-02-23T07:55:26;98694.63;;;6.72;88.50
85023;BME280;75348;43.126;-2.538;2024-02-23T07:57:53;98694.50;;;6.89;91.80
85023;BME280;75348;43.126;-2.538;2024-02-23T08:00:24;98689.94;;;6.91;87.33
85023;BME280;75348;43.126;-2.538;2024-02-23T08:02:53;98711.41;;;7.12;90.87
85023;BME280;75348;43.126;-2.538;2024-02-23T08:05:23;98717.00;;;7.09;84.70
85023;BME280;75348;43.126;-2.538;2024-02-23T08:07:50;98709.25;;;7.07;89.58
85023;BME280;75348;43.126;-2.538;2024-02-23T08:10:17;98713.66;;;6.99;90.40
85023;BME280;75348;43.126;-2.538;2024-02-23T08:12:44;98720.75;;;7.07;91.45
85023;BME280;75348;43.126;-2.538;2024-02-23T08:15:11;98716.97;;;7.01;91.60
85023;BME280;75348;43.126;-2.538;2024-02-23T08:17:38;98714.28;;;6.93;87.51
85023;BME280;75348;43.126;-2.538;2024-02-23T08:20:06;98709.34;;;6.90;86.48
85023;BME280;75348;43.126;-2.538;2024-02-23T08:22:34;98718.09;;;6.99;88.91
85023;BME280;75348;43.126;-2.538;2024-02-23T08:25:01;98720.22;;;6.95;86.84
85023;BME280;75348;43.126;-2.538;2024-02-23T08:27:28;98713.66;;;6.99;91.20
85023;BME280;75348;43.126;-2.538;2024-02-23T08:29:55;98712.34;;;7.03;90.38
85023;BME280;75348;43.126;-2.538;2024-02-23T08:32:22;98709.22;;;7.00;85.63
85023;BME280;75348;43.126;-2.538;2024-02-23T08:34:50;98709.03;;;6.93;85.24
85023;BME280;75348;43.126;-2.538;2024-02-23T08:37:19;98707.09;;;7.11;82.46
85023;BME280;75348;43.126;-2.538;2024-02-23T08:39:46;98707.00;;;7.36;79.76
85023;BME280;75348;43.126;-2.538;2024-02-23T08:42:13;98716.16;;;7.73;77.57
85023;BME280;75348;43.126;-2.538;2024-02-23T08:44:40;98715.00;;;7.92;76.13
85023;BME280;75348;43.126;-2.538;2024-02-23T08:47:08;98722.09;;;7.83;73.47
85023;BME280;75348;43.126;-2.538;2024-02-23T08:49:35;98710.72;;;7.83;78.56
85023;BME280;75348;43.126;-2.538;2024-02-23T08:52:01;98700.66;;;7.70;76.89
85023;BME280;75348;43.126;-2.538;2024-02-23T08:54:29;98711.22;;;7.86;76.28
85023;BME280;75348;43.126;-2.538;2024-02-23T08:56:56;98698.66;;;7.72;77.07
85023;BME280;75348;43.126;-2.538;2024-02-23T08:59:23;98711.38;;;7.93;77.11
85023;BME280;75348;43.126;-2.538;2024-02-23T09:01:50;98709.72;;;7.92;77.14
85023;BME280;75348;43.126;-2.538;2024-02-23T09:04:18;98711.22;;;8.02;72.42
85023;BME280;75348;43.126;-2.538;2024-02-23T09:06:44;98672.94;;;7.98;70.83
85023;BME280;75348;43.126;-2.538;2024-02-23T09:09:12;98690.78;;;8.12;71.77
85023;BME280;75348;43.126;-2.538;2024-02-23T09:11:39;98693.88;;;8.55;70.77
85023;BME280;75348;43.126;-2.538;2024-02-23T09:14:06;98674.13;;;9.41;65.94
85023;BME280;75348;43.126;-2.538;2024-02-23T09:16:35;98678.41;;;9.20;68.79
85023;BME280;75348;43.126;-2.538;2024-02-23T09:19:03;98677.63;;;9.12;71.85
85023;BME280;75348;43.126;-2.538;2024-02-23T09:21:30;98659.34;;;9.32;68.30
85023;BME280;75348;43.126;-2.538;2024-02-23T09:23:57;98668.59;;;10.03;69.01
85023;BME280;75348;43.126;-2.538;2024-02-23T09:26:24;98671.81;;;11.13;64.37
85023;BME280;75348;43.126;-2.538;2024-02-23T09:28:51;98668.53;;;12.02;56.56
85023;BME280;75348;43.126;-2.538;2024-02-23T09:31:18;98647.44;;;13.16;53.84
85023;BME280;75348;43.126;-2.538;2024-02-23T09:33:46;98658.66;;;13.65;52.67
85023;BME280;75348;43.126;-2.538;2024-02-23T09:36:15;98657.06;;;13.17;54.93
85023;BME280;75348;43.126;-2.538;2024-02-23T09:38:42;98642.78;;;13.31;50.34
85023;BME280;75348;43.126;-2.538;2024-02-23T09:41:22;98647.88;;;14.37;50.56
85023;BME280;75348;43.126;-2.538;2024-02-23T09:43:49;98647.63;;;13.80;48.17
85023;BME280;75348;43.126;-2.538;2024-02-23T09:46:18;98647.41;;;12.15;51.51
85023;BME280;75348;43.126;-2.538;2024-02-23T09:48:47;98650.75;;;11.41;54.43
85023;BME280;75348;43.126;-2.538;2024-02-23T09:51:15;98650.75;;;11.41;57.69
85023;BME280;75348;43.126;-2.538;2024-02-23T09:53:43;98643.84;;;12.29;53.11
85023;BME280;75348;43.126;-2.538;2024-02-23T09:56:10;98652.47;;;11.48;54.29
85023;BME280;75348;43.126;-2.538;2024-02-23T09:58:39;98646.41;;;11.54;57.98
85023;BME280;75348;43.126;-2.538;2024-02-23T10:01:08;98634.31;;;12.41;54.23
85023;BME280;75348;43.126;-2.538;2024-02-23T10:03:39;98625.00;;;11.55;55.17
85023;BME280;75348;43.126;-2.538;2024-02-23T10:06:06;98627.91;;;11.25;53.77
85023;BME280;75348;43.126;-2.538;2024-02-23T10:08:33;98644.59;;;11.40;56.42
85023;BME280;75348;43.126;-2.538;2024-02-23T10:11:00;98648.56;;;12.61;52.16
85023;BME280;75348;43.126;-2.538;2024-02-23T10:13:29;98636.28;;;14.94;47.22
85023;BME280;75348;43.126;-2.538;2024-02-23T10:15:56;98618.91;;;14.66;43.85
85023;BME280;75348;43.126;-2.538;2024-02-23T10:18:40;98617.06;;;15.29;42.21
85023;BME280;75348;43.126;-2.538;2024-02-23T10:21:07;98599.66;;;15.57;41.46
85023;BME280;75348;43.126;-2.538;2024-02-23T10:23:34;98623.25;;;15.60;43.00
85023;BME280;75348;43.126;-2.538;2024-02-23T10:26:07;98607.88;;;17.13;42.17
85023;BME280;75348;43.126;-2.538;2024-02-23T10:28:36;98599.03;;;16.10;41.66
85023;BME280;75348;43.126;-2.538;2024-02-23T10:31:06;98600.97;;;16.28;43.99
85023;BME280;75348;43.126;-2.538;2024-02-23T10:33:38;98594.94;;;13.57;45.17
85023;BME280;75348;43.126;-2.538;2024-02-23T10:36:07;98591.53;;;13.03;48.63
85023;BME280;75348;43.126;-2.538;2024-02-23T10:38:38;98583.56;;;12.02;50.78
85023;BME280;75348;43.126;-2.538;2024-02-23T10:41:12;98595.94;;;11.96;50.21
85023;BME280;75348;43.126;-2.538;2024-02-23T10:43:44;98593.97;;;12.65;51.32
85023;BME280;75348;43.126;-2.538;2024-02-23T10:46:12;98588.91;;;12.70;47.92
85023;BME280;75348;43.126;-2.538;2024-02-23T10:48:44;98597.91;;;12.75;47.92
85023;BME280;75348;43.126;-2.538;2024-02-23T10:51:14;98597.75;;;12.16;47.86
85023;BME280;75348;43.126;-2.538;2024-02-23T10:53:46;98606.94;;;12.13;46.96
85023;BME280;75348;43.126;-2.538;2024-02-23T10:56:15;98585.47;;;11.88;50.15
85023;BME280;75348;43.126;-2.538;2024-02-23T10:58:43;98587.50;;;12.40;51.44
85023;BME280;75348;43.126;-2.538;2024-02-23T11:01:10;98605.69;;;12.77;47.73
85023;BME280;75348;43.126;-2.538;2024-02-23T11:03:38;98597.66;;;13.04;48.22
85023;BME280;75348;43.126;-2.538;2024-02-23T11:06:07;98587.28;;;12.75;48.95
85023;BME280;75348;43.126;-2.538;2024-02-23T11:08:35;98589.19;;;12.54;49.53
85023;BME280;75348;43.126;-2.538;2024-02-23T11:11:11;98563.19;;;12.43;46.74
85023;BME280;75348;43.126;-2.538;2024-02-23T11:13:42;98587.00;;;12.30;47.86
85023;BME280;75348;43.126;-2.538;2024-02-23T11:16:09;98586.84;;;12.38;49.07
85023;BME280;75348;43.126;-2.538;2024-02-23T11:18:39;98584.72;;;12.54;46.87
85023;BME280;75348;43.126;-2.538;2024-02-23T11:21:09;98590.03;;;12.88;46.39
85023;BME280;75348;43.126;-2.538;2024-02-23T11:24:03;98594.75;;;13.77;45.54
85023;BME280;75348;43.126;-2.538;2024-02-23T11:26:31;98587.56;;;13.78;44.94
85023;BME280;75348;43.126;-2.538;2024-02-23T11:29:10;98581.03;;;14.00;43.80
85023;BME280;75348;43.126;-2.538;2024-02-23T11:31:44;98589.22;;;14.24;46.28
85023;BME280;75348;43.126;-2.538;2024-02-23T11:34:11;98560.53;;;14.13;45.06
85023;BME280;75348;43.126;-2.538;2024-02-23T11:36:39;98564.00;;;16.25;39.58
85023;BME280;75348;43.126;-2.538;2024-02-23T11:39:06;98564.97;;;17.48;35.00
85023;BME280;75348;43.126;-2.538;2024-02-23T11:41:37;98557.78;;;17.60;35.37
85023;BME280;75348;43.126;-2.538;2024-02-23T11:44:05;98555.44;;;16.10;39.70
85023;BME280;75348;43.126;-2.538;2024-02-23T11:46:33;98556.41;;;15.43;42.46
85023;BME280;75348;43.126;-2.538;2024-02-23T11:49:00;98547.00;;;13.95;45.01
85023;BME280;75348;43.126;-2.538;2024-02-23T11:51:28;98572.19;;;13.67;47.01
85023;BME280;75348;43.126;-2.538;2024-02-23T11:53:56;98573.38;;;12.73;47.03
85023;BME280;75348;43.126;-2.538;2024-02-23T11:56:25;98562.13;;;12.38;48.57
85023;BME280;75348;43.126;-2.538;2024-02-23T11:58:54;98565.94;;;11.95;47.11
85023;BME280;75348;43.126;-2.538;2024-02-23T12:01:22;98577.13;;;11.91;53.24
85023;BME280;75348;43.126;-2.538;2024-02-23T12:03:49;98598.50;;;11.83;59.20
85023;BME280;75348;43.126;-2.538;2024-02-23T12:06:16;98580.25;;;11.73;53.16
85023;BME280;75348;43.126;-2.538;2024-02-23T12:08:44;98593.28;;;11.96;54.87
85023;BME280;75348;43.126;-2.538;2024-02-23T12:11:12;98577.25;;;12.03;54.25
85023;BME280;75348;43.126;-2.538;2024-02-23T12:13:40;98574.47;;;11.91;53.64
85023;BME280;75348;43.126;-2.538;2024-02-23T12:16:08;98560.09;;;11.79;53.27
85023;BME280;75348;43.126;-2.538;2024-02-23T12:18:36;98571.47;;;11.73;52.91
85023;BME280;75348;43.126;-2.538;2024-02-23T12:21:09;98582.44;;;11.91;55.00
85023;BME280;75348;43.126;-2.538;2024-02-23T12:23:42;98583.56;;;12.02;54.62
85023;BME280;75348;43.126;-2.538;2024-02-23T12:26:12;98548.47;;;12.07;54.65
85023;BME280;75348;43.126;-2.538;2024-02-23T12:28:41;98531.69;;;12.40;52.92
85023;BME280;75348;43.126;-2.538;2024-02-23T12:31:08;98553.28;;;12.64;54.48
85023;BME280;75348;43.126;-2.538;2024-02-23T12:33:38;98568.97;;;12.93;55.54
85023;BME280;75348;43.126;-2.538;2024-02-23T12:36:08;98554.63;;;12.88;53.25
85023;BME280;75348;43.126;-2.538;2024-02-23T12:38:37;98544.59;;;15.26;47.73
85023;BME280;75348;43.126;-2.538;2024-02-23T12:41:04;98535.31;;;16.85;43.42
85023;BME280;75348;43.126;-2.538;2024-02-23T12:43:32;98522.31;;;17.36;42.69
85023;BME280;75348;43.126;-2.538;2024-02-23T12:45:59;98511.13;;;18.36;40.92
85023;BME280;75348;43.126;-2.538;2024-02-23T12:48:28;98492.31;;;17.79;40.95
85023;BME280;75348;43.126;-2.538;2024-02-23T12:50:55;98501.94;;;17.17;42.24
85023;BME280;75348;43.126;-2.538;2024-02-23T12:53:36;98487.34;;;18.05;41.00
85023;BME280;75348;43.126;-2.538;2024-02-23T12:56:06;98497.59;;;18.93;39.96
85023;BME280;75348;43.126;-2.538;2024-02-23T12:58:40;98490.44;;;16.69;42.53
85023;BME280;75348;43.126;-2.538;2024-02-23T13:01:08;98476.97;;;17.23;43.01